Cardinal, Virginia
Current Conditions -  °F | °C
As of 8:35 PM on Wednesday 26 Nov 2014 (Local Time) from KW75 Reporting Station
Overcast Overcast  
Wind Chill: 33°   Ceiling: 1100
Heat Index: 39°   Visibility: 10mi
Dew Point: 36°   Wind: 9mph
Humidity: 88%   Direction: 320°NW
Pressure: 29.96"   Gusts: 17mph
Location:  37.42°N, 76.38°W
Report Text: KW75 270135Z AUTO 32008G15KT 10SM OVC011 04/02 A2996 RMK AO1 T00400022
Loading
Personal Weather Stations






























Interactive Weather Map New forecast layout! Learn more

10-Day Weather Forecast

Advertisements
Track Severe Weather on mobile